sensor_id;sensor_type;location;lat;lon;timestamp;temperature;humidity
20358;DHT22;75325;47.812;13.026;2024-03-08T00:01:06;6.60;51.50
20358;DHT22;75325;47.812;13.026;2024-03-08T00:03:34;6.60;52.20
20358;DHT22;75325;47.812;13.026;2024-03-08T00:06:03;6.60;51.50
20358;DHT22;75325;47.812;13.026;2024-03-08T00:08:33;6.60;52.20
20358;DHT22;75325;47.812;13.026;2024-03-08T00:11:01;6.50;51.50
20358;DHT22;75325;47.812;13.026;2024-03-08T00:13:29;6.50;51.50
20358;DHT22;75325;47.812;13.026;2024-03-08T00:15:57;6.50;51.60
20358;DHT22;75325;47.812;13.026;2024-03-08T00:18:25;6.50;51.60
20358;DHT22;75325;47.812;13.026;2024-03-08T00:20:56;6.50;51.60
20358;DHT22;75325;47.812;13.026;2024-03-08T00:23:24;6.50;51.60
20358;DHT22;75325;47.812;13.026;2024-03-08T00:25:54;6.50;51.50
20358;DHT22;75325;47.812;13.026;2024-03-08T00:28:22;6.40;51.50
20358;DHT22;75325;47.812;13.026;2024-03-08T00:30:51;6.40;51.50
20358;DHT22;75325;47.812;13.026;2024-03-08T00:33:20;6.40;51.50
20358;DHT22;75325;47.812;13.026;2024-03-08T00:35:48;6.40;51.60
20358;DHT22;75325;47.812;13.026;2024-03-08T00:38:16;6.40;51.60
20358;DHT22;75325;47.812;13.026;2024-03-08T00:40:45;6.40;51.60
20358;DHT22;75325;47.812;13.026;2024-03-08T00:43:15;6.30;51.50
20358;DHT22;75325;47.812;13.026;2024-03-08T00:45:43;6.30;51.60
20358;DHT22;75325;47.812;13.026;2024-03-08T00:48:11;6.30;51.60
20358;DHT22;75325;47.812;13.026;2024-03-08T00:50:40;6.30;51.60
20358;DHT22;75325;47.812;13.026;2024-03-08T00:53:08;6.30;51.50
20358;DHT22;75325;47.812;13.026;2024-03-08T00:55:37;6.30;51.60
20358;DHT22;75325;47.812;13.026;2024-03-08T00:58:05;6.30;51.60
20358;DHT22;75325;47.812;13.026;2024-03-08T01:00:37;6.30;51.60
20358;DHT22;75325;47.812;13.026;2024-03-08T01:03:06;6.20;51.60
20358;DHT22;75325;47.812;13.026;2024-03-08T01:05:34;6.20;51.60
20358;DHT22;75325;47.812;13.026;2024-03-08T01:08:02;6.20;51.80
20358;DHT22;75325;47.812;13.026;2024-03-08T01:10:32;6.20;51.70
20358;DHT22;75325;47.812;13.026;2024-03-08T01:13:00;6.10;51.60
20358;DHT22;75325;47.812;13.026;2024-03-08T01:15:29;6.10;51.60
20358;DHT22;75325;47.812;13.026;2024-03-08T01:17:59;6.10;51.60
20358;DHT22;75325;47.812;13.026;2024-03-08T01:20:27;6.10;51.70
20358;DHT22;75325;47.812;13.026;2024-03-08T01:22:55;6.00;51.60
20358;DHT22;75325;47.812;13.026;2024-03-08T01:25:23;6.00;51.60
20358;DHT22;75325;47.812;13.026;2024-03-08T01:27:51;6.00;51.60
20358;DHT22;75325;47.812;13.026;2024-03-08T01:30:21;6.00;51.70
20358;DHT22;75325;47.812;13.026;2024-03-08T01:32:50;6.00;51.70
20358;DHT22;75325;47.812;13.026;2024-03-08T01:35:20;6.00;51.70
20358;DHT22;75325;47.812;13.026;2024-03-08T01:37:49;5.90;51.70
20358;DHT22;75325;47.812;13.026;2024-03-08T01:40:17;5.90;51.70
20358;DHT22;75325;47.812;13.026;2024-03-08T01:42:45;5.90;51.70
20358;DHT22;75325;47.812;13.026;2024-03-08T01:45:14;5.90;51.70
20358;DHT22;75325;47.812;13.026;2024-03-08T01:47:43;5.90;51.70
20358;DHT22;75325;47.812;13.026;2024-03-08T01:50:11;5.90;51.70
20358;DHT22;75325;47.812;13.026;2024-03-08T01:52:41;5.90;51.90
20358;DHT22;75325;47.812;13.026;2024-03-08T01:55:09;5.90;51.80
20358;DHT22;75325;47.812;13.026;2024-03-08T01:57:37;5.90;51.70
20358;DHT22;75325;47.812;13.026;2024-03-08T02:00:06;5.80;52.30
20358;DHT22;75325;47.812;13.026;2024-03-08T02:02:37;5.80;51.70
20358;DHT22;75325;47.812;13.026;2024-03-08T02:05:07;5.80;51.70
20358;DHT22;75325;47.812;13.026;2024-03-08T02:07:35;5.70;51.70
20358;DHT22;75325;47.812;13.026;2024-03-08T02:10:05;5.70;51.70
20358;DHT22;75325;47.812;13.026;2024-03-08T02:12:34;5.70;51.70
20358;DHT22;75325;47.812;13.026;2024-03-08T02:15:02;5.70;51.70
20358;DHT22;75325;47.812;13.026;2024-03-08T02:17:30;5.70;51.70
20358;DHT22;75325;47.812;13.026;2024-03-08T02:19:58;5.70;51.80
20358;DHT22;75325;47.812;13.026;2024-03-08T02:22:29;5.70;51.80
20358;DHT22;75325;47.812;13.026;2024-03-08T02:24:58;5.70;51.90
20358;DHT22;75325;47.812;13.026;2024-03-08T02:27:28;5.70;51.90
20358;DHT22;75325;47.812;13.026;2024-03-08T02:29:56;5.70;51.80
20358;DHT22;75325;47.812;13.026;2024-03-08T02:32:25;5.80;51.90
20358;DHT22;75325;47.812;13.026;2024-03-08T02:34:55;5.80;51.80
20358;DHT22;75325;47.812;13.026;2024-03-08T02:37:27;5.80;51.80
20358;DHT22;75325;47.812;13.026;2024-03-08T02:39:57;5.70;51.70
20358;DHT22;75325;47.812;13.026;2024-03-08T02:42:25;5.70;51.70
20358;DHT22;75325;47.812;13.026;2024-03-08T02:44:53;5.70;51.70
20358;DHT22;75325;47.812;13.026;2024-03-08T02:47:21;5.60;52.20
20358;DHT22;75325;47.812;13.026;2024-03-08T02:49:53;5.60;51.60
20358;DHT22;75325;47.812;13.026;2024-03-08T02:52:21;5.60;51.70
20358;DHT22;75325;47.812;13.026;2024-03-08T02:54:49;5.60;51.80
20358;DHT22;75325;47.812;13.026;2024-03-08T02:57:19;5.50;51.70
20358;DHT22;75325;47.812;13.026;2024-03-08T02:59:47;5.60;51.90
20358;DHT22;75325;47.812;13.026;2024-03-08T03:02:15;5.50;51.80
20358;DHT22;75325;47.812;13.026;2024-03-08T03:04:44;5.60;51.90
20358;DHT22;75325;47.812;13.026;2024-03-08T03:07:12;5.60;51.90
20358;DHT22;75325;47.812;13.026;2024-03-08T03:09:41;5.60;51.90
20358;DHT22;75325;47.812;13.026;2024-03-08T03:12:09;5.60;51.80
20358;DHT22;75325;47.812;13.026;2024-03-08T03:14:39;5.60;51.80
20358;DHT22;75325;47.812;13.026;2024-03-08T03:17:07;5.50;51.90
20358;DHT22;75325;47.812;13.026;2024-03-08T03:19:35;5.50;51.70
20358;DHT22;75325;47.812;13.026;2024-03-08T03:22:04;5.50;51.90
20358;DHT22;75325;47.812;13.026;2024-03-08T03:24:32;5.40;51.80
20358;DHT22;75325;47.812;13.026;2024-03-08T03:27:01;5.40;51.90
20358;DHT22;75325;47.812;13.026;2024-03-08T03:29:39;5.40;51.90
20358;DHT22;75325;47.812;13.026;2024-03-08T03:32:09;5.40;51.90
20358;DHT22;75325;47.812;13.026;2024-03-08T03:34:37;5.40;51.90
20358;DHT22;75325;47.812;13.026;2024-03-08T03:37:05;5.40;51.90
20358;DHT22;75325;47.812;13.026;2024-03-08T03:39:35;5.40;52.00
20358;DHT22;75325;47.812;13.026;2024-03-08T03:42:15;5.40;51.90
20358;DHT22;75325;47.812;13.026;2024-03-08T03:44:45;5.40;51.90
20358;DHT22;75325;47.812;13.026;2024-03-08T03:47:14;5.40;51.90
20358;DHT22;75325;47.812;13.026;2024-03-08T03:49:43;5.40;51.90
20358;DHT22;75325;47.812;13.026;2024-03-08T03:52:11;5.40;51.90
20358;DHT22;75325;47.812;13.026;2024-03-08T03:54:39;5.40;51.90
20358;DHT22;75325;47.812;13.026;2024-03-08T03:57:08;5.40;51.90
20358;DHT22;75325;47.812;13.026;2024-03-08T03:59:36;5.30;51.80
20358;DHT22;75325;47.812;13.026;2024-03-08T04:02:06;5.30;51.80
20358;DHT22;75325;47.812;13.026;2024-03-08T04:04:34;5.30;51.80
20358;DHT22;75325;47.812;13.026;2024-03-08T04:07:02;5.30;51.80
20358;DHT22;75325;47.812;13.026;2024-03-08T04:09:30;5.20;52.40
20358;DHT22;75325;47.812;13.026;2024-03-08T04:11:58;5.20;51.80
20358;DHT22;75325;47.812;13.026;2024-03-08T04:14:28;5.20;51.80
20358;DHT22;75325;47.812;13.026;2024-03-08T04:16:56;5.20;51.90
20358;DHT22;75325;47.812;13.026;2024-03-08T04:19:26;5.10;51.90
20358;DHT22;75325;47.812;13.026;2024-03-08T04:21:54;5.10;51.90
20358;DHT22;75325;47.812;13.026;2024-03-08T04:24:23;5.10;51.90
20358;DHT22;75325;47.812;13.026;2024-03-08T04:26:51;5.10;51.90
20358;DHT22;75325;47.812;13.026;2024-03-08T04:29:19;5.10;51.90
20358;DHT22;75325;47.812;13.026;2024-03-08T04:31:48;5.10;51.90
20358;DHT22;75325;47.812;13.026;2024-03-08T04:34:21;5.10;52.00
20358;DHT22;75325;47.812;13.026;2024-03-08T04:36:52;5.10;52.10
20358;DHT22;75325;47.812;13.026;2024-03-08T04:39:20;5.20;52.10
20358;DHT22;75325;47.812;13.026;2024-03-08T04:41:48;5.20;52.00
20358;DHT22;75325;47.812;13.026;2024-03-08T04:44:17;5.20;52.00
20358;DHT22;75325;47.812;13.026;2024-03-08T04:46:45;5.20;52.00
20358;DHT22;75325;47.812;13.026;2024-03-08T04:49:13;5.20;51.90
20358;DHT22;75325;47.812;13.026;2024-03-08T04:51:41;5.20;52.00
20358;DHT22;75325;47.812;13.026;2024-03-08T04:54:13;5.20;52.00
20358;DHT22;75325;47.812;13.026;2024-03-08T04:56:41;5.20;52.00
20358;DHT22;75325;47.812;13.026;2024-03-08T04:59:09;5.20;51.90
20358;DHT22;75325;47.812;13.026;2024-03-08T05:01:37;5.10;51.90
20358;DHT22;75325;47.812;13.026;2024-03-08T05:04:05;5.10;51.90
20358;DHT22;75325;47.812;13.026;2024-03-08T05:06:36;5.10;51.90
20358;DHT22;75325;47.812;13.026;2024-03-08T05:09:04;5.00;51.90
20358;DHT22;75325;47.812;13.026;2024-03-08T05:11:42;5.00;51.90
20358;DHT22;75325;47.812;13.026;2024-03-08T05:14:11;5.00;51.90
20358;DHT22;75325;47.812;13.026;2024-03-08T05:16:43;4.90;51.90
20358;DHT22;75325;47.812;13.026;2024-03-08T05:19:15;4.90;51.90
20358;DHT22;75325;47.812;13.026;2024-03-08T05:21:45;4.90;51.90
20358;DHT22;75325;47.812;13.026;2024-03-08T05:24:13;5.00;52.00
20358;DHT22;75325;47.812;13.026;2024-03-08T05:26:44;5.00;52.10
20358;DHT22;75325;47.812;13.026;2024-03-08T05:29:12;5.00;52.10
20358;DHT22;75325;47.812;13.026;2024-03-08T05:31:43;5.10;52.20
20358;DHT22;75325;47.812;13.026;2024-03-08T05:34:13;5.10;52.20
20358;DHT22;75325;47.812;13.026;2024-03-08T05:36:42;5.20;52.10
20358;DHT22;75325;47.812;13.026;2024-03-08T05:39:11;5.20;52.10
20358;DHT22;75325;47.812;13.026;2024-03-08T05:41:40;5.20;52.00
20358;DHT22;75325;47.812;13.026;2024-03-08T05:44:10;5.20;52.00
20358;DHT22;75325;47.812;13.026;2024-03-08T05:46:38;5.10;51.90
20358;DHT22;75325;47.812;13.026;2024-03-08T05:49:07;5.10;51.90
20358;DHT22;75325;47.812;13.026;2024-03-08T05:51:38;5.10;51.90
20358;DHT22;75325;47.812;13.026;2024-03-08T05:54:07;5.10;51.90
20358;DHT22;75325;47.812;13.026;2024-03-08T05:56:37;5.10;51.90
20358;DHT22;75325;47.812;13.026;2024-03-08T05:59:05;5.10;51.90
20358;DHT22;75325;47.812;13.026;2024-03-08T06:01:34;5.10;52.00
20358;DHT22;75325;47.812;13.026;2024-03-08T06:04:03;5.00;52.10
20358;DHT22;75325;47.812;13.026;2024-03-08T06:06:31;5.00;52.00
20358;DHT22;75325;47.812;13.026;2024-03-08T06:08:59;5.10;52.50
20358;DHT22;75325;47.812;13.026;2024-03-08T06:11:35;5.10;52.00
20358;DHT22;75325;47.812;13.026;2024-03-08T06:14:04;5.10;52.00
20358;DHT22;75325;47.812;13.026;2024-03-08T06:16:34;5.20;52.10
20358;DHT22;75325;47.812;13.026;2024-03-08T06:19:03;5.20;52.20
20358;DHT22;75325;47.812;13.026;2024-03-08T06:21:31;5.40;52.40
20358;DHT22;75325;47.812;13.026;2024-03-08T06:23:59;5.50;52.40
20358;DHT22;75325;47.812;13.026;2024-03-08T06:26:28;5.60;52.40
20358;DHT22;75325;47.812;13.026;2024-03-08T06:28:58;5.70;52.40
20358;DHT22;75325;47.812;13.026;2024-03-08T06:31:26;5.80;52.30
20358;DHT22;75325;47.812;13.026;2024-03-08T06:33:56;5.90;52.20
20358;DHT22;75325;47.812;13.026;2024-03-08T06:36:25;6.00;52.20
20358;DHT22;75325;47.812;13.026;2024-03-08T06:38:55;6.10;52.30
20358;DHT22;75325;47.812;13.026;2024-03-08T06:41:24;6.20;52.30
20358;DHT22;75325;47.812;13.026;2024-03-08T06:43:53;6.30;52.30
20358;DHT22;75325;47.812;13.026;2024-03-08T06:46:24;6.40;52.40
20358;DHT22;75325;47.812;13.026;2024-03-08T06:48:52;6.50;52.30
20358;DHT22;75325;47.812;13.026;2024-03-08T06:51:22;6.60;52.20
20358;DHT22;75325;47.812;13.026;2024-03-08T06:53:50;6.70;52.20
20358;DHT22;75325;47.812;13.026;2024-03-08T06:56:19;6.80;52.10
20358;DHT22;75325;47.812;13.026;2024-03-08T06:58:49;6.90;52.10
20358;DHT22;75325;47.812;13.026;2024-03-08T07:01:18;7.00;52.10
20358;DHT22;75325;47.812;13.026;2024-03-08T07:03:46;7.10;52.10
20358;DHT22;75325;47.812;13.026;2024-03-08T07:06:14;7.20;52.10
20358;DHT22;75325;47.812;13.026;2024-03-08T07:08:47;7.30;52.20
20358;DHT22;75325;47.812;13.026;2024-03-08T07:11:16;7.40;52.10
20358;DHT22;75325;47.812;13.026;2024-03-08T07:13:46;7.50;52.10
20358;DHT22;75325;47.812;13.026;2024-03-08T07:16:14;7.50;52.10
20358;DHT22;75325;47.812;13.026;2024-03-08T07:18:42;7.60;52.30
20358;DHT22;75325;47.812;13.026;2024-03-08T07:21:11;7.70;52.20
20358;DHT22;75325;47.812;13.026;2024-03-08T07:23:39;7.80;52.20
20358;DHT22;75325;47.812;13.026;2024-03-08T07:26:41;7.90;52.30
20358;DHT22;75325;47.812;13.026;2024-03-08T07:29:09;8.00;52.20
20358;DHT22;75325;47.812;13.026;2024-03-08T07:31:37;8.10;52.20
20358;DHT22;75325;47.812;13.026;2024-03-08T07:34:12;8.20;52.10
20358;DHT22;75325;47.812;13.026;2024-03-08T07:36:40;8.30;52.10
20358;DHT22;75325;47.812;13.026;2024-03-08T07:39:08;8.30;52.00
20358;DHT22;75325;47.812;13.026;2024-03-08T07:41:38;8.40;52.00
20358;DHT22;75325;47.812;13.026;2024-03-08T07:44:09;8.50;52.10
20358;DHT22;75325;47.812;13.026;2024-03-08T07:46:37;8.50;52.00
20358;DHT22;75325;47.812;13.026;2024-03-08T07:49:05;8.60;52.00
20358;DHT22;75325;47.812;13.026;2024-03-08T07:51:38;8.70;52.00
20358;DHT22;75325;47.812;13.026;2024-03-08T07:54:06;8.80;52.00
20358;DHT22;75325;47.812;13.026;2024-03-08T07:56:36;8.90;51.90
20358;DHT22;75325;47.812;13.026;2024-03-08T07:59:04;9.00;51.90
20358;DHT22;75325;47.812;13.026;2024-03-08T08:01:34;9.10;52.00
20358;DHT22;75325;47.812;13.026;2024-03-08T08:04:02;9.20;51.90
20358;DHT22;75325;47.812;13.026;2024-03-08T08:06:30;9.30;51.90
20358;DHT22;75325;47.812;13.026;2024-03-08T08:09:00;9.60;52.30
20358;DHT22;75325;47.812;13.026;2024-03-08T08:11:28;10.60;54.20
20358;DHT22;75325;47.812;13.026;2024-03-08T08:13:56;12.50;55.00
20358;DHT22;75325;47.812;13.026;2024-03-08T08:16:26;14.80;54.30
20358;DHT22;75325;47.812;13.026;2024-03-08T08:18:55;16.90;52.00
20358;DHT22;75325;47.812;13.026;2024-03-08T08:21:23;18.60;50.30
20358;DHT22;75325;47.812;13.026;2024-03-08T08:23:52;20.30;49.20
20358;DHT22;75325;47.812;13.026;2024-03-08T08:26:21;21.60;47.40
20358;DHT22;75325;47.812;13.026;2024-03-08T08:28:53;22.30;45.80
20358;DHT22;75325;47.812;13.026;2024-03-08T08:31:21;23.20;45.60
20358;DHT22;75325;47.812;13.026;2024-03-08T08:33:49;23.90;44.80
20358;DHT22;75325;47.812;13.026;2024-03-08T08:36:24;24.50;44.60
20358;DHT22;75325;47.812;13.026;2024-03-08T08:38:52;25.10;43.70
20358;DHT22;75325;47.812;13.026;2024-03-08T08:41:20;25.40;43.50
20358;DHT22;75325;47.812;13.026;2024-03-08T08:43:49;25.80;43.30
20358;DHT22;75325;47.812;13.026;2024-03-08T08:46:34;26.30;43.40
20358;DHT22;75325;47.812;13.026;2024-03-08T08:49:07;26.40;42.10
20358;DHT22;75325;47.812;13.026;2024-03-08T08:51:39;26.30;42.00
20358;DHT22;75325;47.812;13.026;2024-03-08T08:54:07;26.50;42.50
20358;DHT22;75325;47.812;13.026;2024-03-08T08:56:39;26.90;43.10
20358;DHT22;75325;47.812;13.026;2024-03-08T08:59:07;27.40;43.20
20358;DHT22;75325;47.812;13.026;2024-03-08T09:01:35;27.20;42.30
20358;DHT22;75325;47.812;13.026;2024-03-08T09:04:04;27.20;43.10
20358;DHT22;75325;47.812;13.026;2024-03-08T09:06:32;27.80;43.40
20358;DHT22;75325;47.812;13.026;2024-03-08T09:09:02;28.40;43.20
20358;DHT22;75325;47.812;13.026;2024-03-08T09:11:32;29.00;42.90
20358;DHT22;75325;47.812;13.026;2024-03-08T09:14:01;29.60;42.50
20358;DHT22;75325;47.812;13.026;2024-03-08T09:16:30;29.80;41.80
20358;DHT22;75325;47.812;13.026;2024-03-08T09:19:00;30.20;41.70
20358;DHT22;75325;47.812;13.026;2024-03-08T09:21:28;30.40;41.20
20358;DHT22;75325;47.812;13.026;2024-03-08T09:23:56;30.40;40.90
20358;DHT22;75325;47.812;13.026;2024-03-08T09:26:27;30.20;40.10
20358;DHT22;75325;47.812;13.026;2024-03-08T09:28:55;30.10;40.50
20358;DHT22;75325;47.812;13.026;2024-03-08T09:31:24;30.10;40.60
20358;DHT22;75325;47.812;13.026;2024-03-08T09:33:53;30.40;41.00
20358;DHT22;75325;47.812;13.026;2024-03-08T09:36:21;30.90;41.00
20358;DHT22;75325;47.812;13.026;2024-03-08T09:38:49;30.90;40.40
20358;DHT22;75325;47.812;13.026;2024-03-08T09:41:17;31.30;40.80
20358;DHT22;75325;47.812;13.026;2024-03-08T09:43:47;31.80;40.70
20358;DHT22;75325;47.812;13.026;2024-03-08T09:46:16;32.00;40.40
20358;DHT22;75325;47.812;13.026;2024-03-08T09:48:46;32.10;39.90
20358;DHT22;75325;47.812;13.026;2024-03-08T09:51:14;32.00;39.60
20358;DHT22;75325;47.812;13.026;2024-03-08T09:53:43;31.90;39.50
20358;DHT22;75325;47.812;13.026;2024-03-08T09:56:11;31.60;39.00
20358;DHT22;75325;47.812;13.026;2024-03-08T09:58:39;31.60;39.70
20358;DHT22;75325;47.812;13.026;2024-03-08T10:01:42;31.70;39.20
20358;DHT22;75325;47.812;13.026;2024-03-08T10:04:11;31.70;39.40
20358;DHT22;75325;47.812;13.026;2024-03-08T10:06:40;32.00;39.60
20358;DHT22;75325;47.812;13.026;2024-03-08T10:09:08;32.20;39.40
20358;DHT22;75325;47.812;13.026;2024-03-08T10:11:37;32.10;37.90
20358;DHT22;75325;47.812;13.026;2024-03-08T10:14:07;31.60;38.10
20358;DHT22;75325;47.812;13.026;2024-03-08T10:16:36;31.40;38.70
20358;DHT22;75325;47.812;13.026;2024-03-08T10:19:05;31.40;38.90
20358;DHT22;75325;47.812;13.026;2024-03-08T10:21:34;31.30;38.70
20358;DHT22;75325;47.812;13.026;2024-03-08T10:24:03;31.20;38.70
20358;DHT22;75325;47.812;13.026;2024-03-08T10:26:31;31.30;38.80
20358;DHT22;75325;47.812;13.026;2024-03-08T10:28:59;31.70;39.10
20358;DHT22;75325;47.812;13.026;2024-03-08T10:31:27;32.00;39.00
20358;DHT22;75325;47.812;13.026;2024-03-08T10:33:55;32.30;38.80
20358;DHT22;75325;47.812;13.026;2024-03-08T10:36:25;32.60;38.50
20358;DHT22;75325;47.812;13.026;2024-03-08T10:38:53;32.60;37.90
20358;DHT22;75325;47.812;13.026;2024-03-08T10:41:24;32.60;38.10
20358;DHT22;75325;47.812;13.026;2024-03-08T10:43:57;32.60;37.90
20358;DHT22;75325;47.812;13.026;2024-03-08T10:46:30;32.50;37.50
20358;DHT22;75325;47.812;13.026;2024-03-08T10:48:59;31.90;36.90
20358;DHT22;75325;47.812;13.026;2024-03-08T10:51:31;31.40;36.90
20358;DHT22;75325;47.812;13.026;2024-03-08T10:54:00;31.00;37.20
20358;DHT22;75325;47.812;13.026;2024-03-08T10:56:30;30.70;37.60
20358;DHT22;75325;47.812;13.026;2024-03-08T10:58:58;30.30;36.90
20358;DHT22;75325;47.812;13.026;2024-03-08T11:01:26;29.90;37.10
20358;DHT22;75325;47.812;13.026;2024-03-08T11:03:57;29.40;37.00
20358;DHT22;75325;47.812;13.026;2024-03-08T11:06:41;28.90;37.40
20358;DHT22;75325;47.812;13.026;2024-03-08T11:09:11;28.40;37.40
20358;DHT22;75325;47.812;13.026;2024-03-08T11:14:52;27.20;37.70
20358;DHT22;75325;47.812;13.026;2024-03-08T11:17:21;26.40;39.10
20358;DHT22;75325;47.812;13.026;2024-03-08T11:19:49;25.70;38.90
20358;DHT22;75325;47.812;13.026;2024-03-08T11:22:26;24.80;39.20
20358;DHT22;75325;47.812;13.026;2024-03-08T11:24:58;23.80;40.00
20358;DHT22;75325;47.812;13.026;2024-03-08T11:27:30;22.80;40.90
20358;DHT22;75325;47.812;13.026;2024-03-08T11:30:00;21.80;41.50
20358;DHT22;75325;47.812;13.026;2024-03-08T11:32:36;20.60;42.00
20358;DHT22;75325;47.812;13.026;2024-03-08T11:35:06;19.50;43.10
20358;DHT22;75325;47.812;13.026;2024-03-08T11:37:36;18.70;44.20
20358;DHT22;75325;47.812;13.026;2024-03-08T11:40:11;17.80;45.00
20358;DHT22;75325;47.812;13.026;2024-03-08T11:42:43;17.50;45.80
20358;DHT22;75325;47.812;13.026;2024-03-08T11:45:13;17.10;46.20
20358;DHT22;75325;47.812;13.026;2024-03-08T11:47:42;16.70;46.60
20358;DHT22;75325;47.812;13.026;2024-03-08T11:50:13;16.50;46.90
20358;DHT22;75325;47.812;13.026;2024-03-08T11:52:43;16.30;47.20
20358;DHT22;75325;47.812;13.026;2024-03-08T11:55:12;16.10;47.30
20358;DHT22;75325;47.812;13.026;2024-03-08T11:57:41;16.00;47.50
20358;DHT22;75325;47.812;13.026;2024-03-08T12:00:14;15.90;47.50
20358;DHT22;75325;47.812;13.026;2024-03-08T12:03:00;15.80;47.60
20358;DHT22;75325;47.812;13.026;2024-03-08T12:05:29;15.70;47.50
20358;DHT22;75325;47.812;13.026;2024-03-08T12:08:00;15.70;47.60
20358;DHT22;75325;47.812;13.026;2024-03-08T12:10:28;15.70;48.00
20358;DHT22;75325;47.812;13.026;2024-03-08T12:12:57;15.60;47.60
20358;DHT22;75325;47.812;13.026;2024-03-08T12:15:27;15.60;47.70
20358;DHT22;75325;47.812;13.026;2024-03-08T12:17:56;15.60;47.70
20358;DHT22;75325;47.812;13.026;2024-03-08T12:20:25;15.50;47.70
20358;DHT22;75325;47.812;13.026;2024-03-08T12:22:54;15.50;47.80
20358;DHT22;75325;47.812;13.026;2024-03-08T12:25:27;15.40;47.70
20358;DHT22;75325;47.812;13.026;2024-03-08T12:28:06;15.50;48.00
20358;DHT22;75325;47.812;13.026;2024-03-08T12:30:37;15.50;48.00
20358;DHT22;75325;47.812;13.026;2024-03-08T12:33:12;15.60;48.00
20358;DHT22;75325;47.812;13.026;2024-03-08T12:35:40;15.60;48.00
20358;DHT22;75325;47.812;13.026;2024-03-08T12:38:09;15.60;48.00
20358;DHT22;75325;47.812;13.026;2024-03-08T12:40:40;15.60;48.00
20358;DHT22;75325;47.812;13.026;2024-03-08T12:43:09;15.70;47.90
20358;DHT22;75325;47.812;13.026;2024-03-08T12:45:37;15.80;48.00
20358;DHT22;75325;47.812;13.026;2024-03-08T12:48:11;15.80;47.90
20358;DHT22;75325;47.812;13.026;2024-03-08T12:50:41;15.90;48.00
20358;DHT22;75325;47.812;13.026;2024-03-08T12:53:10;15.90;47.70
20358;DHT22;75325;47.812;13.026;2024-03-08T12:55:41;16.00;47.90
20358;DHT22;75325;47.812;13.026;2024-03-08T12:58:10;16.00;47.80
20358;DHT22;75325;47.812;13.026;2024-03-08T13:00:38;16.10;47.60
20358;DHT22;75325;47.812;13.026;2024-03-08T13:03:09;16.10;47.70
20358;DHT22;75325;47.812;13.026;2024-03-08T13:05:38;16.20;47.80
20358;DHT22;75325;47.812;13.026;2024-03-08T13:08:09;16.30;47.80
20358;DHT22;75325;47.812;13.026;2024-03-08T13:10:41;16.40;47.90
20358;DHT22;75325;47.812;13.026;2024-03-08T13:13:12;16.50;47.80
20358;DHT22;75325;47.812;13.026;2024-03-08T13:15:45;16.70;47.60
20358;DHT22;75325;47.812;13.026;2024-03-08T13:18:14;16.70;47.60
20358;DHT22;75325;47.812;13.026;2024-03-08T13:20:43;16.70;47.40
20358;DHT22;75325;47.812;13.026;2024-03-08T13:23:16;16.80;47.50
20358;DHT22;75325;47.812;13.026;2024-03-08T13:25:47;16.90;47.40
20358;DHT22;75325;47.812;13.026;2024-03-08T13:28:16;16.90;47.50
20358;DHT22;75325;47.812;13.026;2024-03-08T13:30:50;17.00;47.50
20358;DHT22;75325;47.812;13.026;2024-03-08T13:33:25;17.10;47.30
20358;DHT22;75325;47.812;13.026;2024-03-08T13:35:54;17.10;47.20
20358;DHT22;75325;47.812;13.026;2024-03-08T13:38:31;17.10;46.90
20358;DHT22;75325;47.812;13.026;2024-03-08T13:41:02;17.10;46.80
20358;DHT22;75325;47.812;13.026;2024-03-08T13:43:30;17.10;46.70
20358;DHT22;75325;47.812;13.026;2024-03-08T13:46:01;17.10;47.00
20358;DHT22;75325;47.812;13.026;2024-03-08T13:48:31;17.10;46.80
20358;DHT22;75325;47.812;13.026;2024-03-08T13:51:00;17.10;46.60
20358;DHT22;75325;47.812;13.026;2024-03-08T13:53:28;17.20;46.60
20358;DHT22;75325;47.812;13.026;2024-03-08T13:55:56;17.10;46.00
20358;DHT22;75325;47.812;13.026;2024-03-08T13:58:32;17.10;45.70
20358;DHT22;75325;47.812;13.026;2024-03-08T14:01:02;17.00;45.60
20358;DHT22;75325;47.812;13.026;2024-03-08T14:03:33;16.90;45.60
20358;DHT22;75325;47.812;13.026;2024-03-08T14:06:01;16.80;45.20
20358;DHT22;75325;47.812;13.026;2024-03-08T14:08:30;16.80;45.70
20358;DHT22;75325;47.812;13.026;2024-03-08T14:11:00;16.80;45.60
20358;DHT22;75325;47.812;13.026;2024-03-08T14:13:42;16.80;45.30
20358;DHT22;75325;47.812;13.026;2024-03-08T14:16:12;16.80;45.50
20358;DHT22;75325;47.812;13.026;2024-03-08T14:18:40;16.80;45.10
20358;DHT22;75325;47.812;13.026;2024-03-08T14:21:08;16.80;45.20
20358;DHT22;75325;47.812;13.026;2024-03-08T14:23:37;16.80;45.10
20358;DHT22;75325;47.812;13.026;2024-03-08T14:26:08;16.70;44.90
20358;DHT22;75325;47.812;13.026;2024-03-08T14:28:39;16.70;45.20
20358;DHT22;75325;47.812;13.026;2024-03-08T14:31:09;16.80;45.40
20358;DHT22;75325;47.812;13.026;2024-03-08T14:33:38;16.80;45.30
20358;DHT22;75325;47.812;13.026;2024-03-08T14:36:09;16.80;45.50
20358;DHT22;75325;47.812;13.026;2024-03-08T14:38:40;16.80;45.50
20358;DHT22;75325;47.812;13.026;2024-03-08T14:41:08;16.90;45.40
20358;DHT22;75325;47.812;13.026;2024-03-08T14:43:37;16.90;45.30
20358;DHT22;75325;47.812;13.026;2024-03-08T14:46:05;16.90;45.50
20358;DHT22;75325;47.812;13.026;2024-03-08T14:48:34;16.90;45.10
20358;DHT22;75325;47.812;13.026;2024-03-08T14:51:04;16.90;45.30
20358;DHT22;75325;47.812;13.026;2024-03-08T14:53:37;16.90;45.20
20358;DHT22;75325;47.812;13.026;2024-03-08T14:56:07;16.90;45.30
20358;DHT22;75325;47.812;13.026;2024-03-08T14:58:36;16.90;45.50
20358;DHT22;75325;47.812;13.026;2024-03-08T15:01:04;16.90;45.10
20358;DHT22;75325;47.812;13.026;2024-03-08T15:03:36;16.90;45.00
20358;DHT22;75325;47.812;13.026;2024-03-08T15:06:05;16.80;44.90
20358;DHT22;75325;47.812;13.026;2024-03-08T15:08:35;16.70;44.80
20358;DHT22;75325;47.812;13.026;2024-03-08T15:11:03;16.70;45.10
20358;DHT22;75325;47.812;13.026;2024-03-08T15:13:32;16.60;44.90
20358;DHT22;75325;47.812;13.026;2024-03-08T15:16:08;16.60;44.80
20358;DHT22;75325;47.812;13.026;2024-03-08T15:18:43;16.50;44.60
20358;DHT22;75325;47.812;13.026;2024-03-08T15:21:18;16.40;44.70
20358;DHT22;75325;47.812;13.026;2024-03-08T15:23:47;16.40;44.80
20358;DHT22;75325;47.812;13.026;2024-03-08T15:26:19;16.30;45.00
20358;DHT22;75325;47.812;13.026;2024-03-08T15:28:47;16.30;44.90
20358;DHT22;75325;47.812;13.026;2024-03-08T15:31:19;16.30;45.00
20358;DHT22;75325;47.812;13.026;2024-03-08T15:33:53;16.20;44.90
20358;DHT22;75325;47.812;13.026;2024-03-08T15:36:28;16.20;45.00
20358;DHT22;75325;47.812;13.026;2024-03-08T15:38:57;16.10;44.70
20358;DHT22;75325;47.812;13.026;2024-03-08T15:41:26;16.10;44.80